createdAt,value
2019-04-14T00:00:11.910Z,3.96
2019-04-14T00:01:10.919Z,3.88
2019-04-14T00:02:11.720Z,3.91
2019-04-14T00:03:10.873Z,3.96
2019-04-14T00:04:11.543Z,3.88
2019-04-14T00:05:10.725Z,3.94
2019-04-14T00:06:11.283Z,3.88
2019-04-14T00:07:10.728Z,3.91
2019-04-14T00:08:11.078Z,3.93
2019-04-14T00:09:11.779Z,3.96
2019-04-14T00:10:11.474Z,3.84
2019-04-14T00:11:10.657Z,3.90
2019-04-14T00:12:11.952Z,3.80
2019-04-14T00:13:10.996Z,3.84
2019-04-14T00:14:11.710Z,3.83
2019-04-14T00:15:23.329Z,3.90
2019-04-14T00:16:11.807Z,3.87
2019-04-14T00:17:10.869Z,3.83
2019-04-14T00:18:11.765Z,3.83
2019-04-14T00:19:10.826Z,3.78
2019-04-14T00:20:11.666Z,3.73
2019-04-14T00:21:10.848Z,3.73
2019-04-14T00:22:11.696Z,3.69
2019-04-14T00:23:10.895Z,3.72
2019-04-14T00:24:11.594Z,3.76
2019-04-14T00:25:10.789Z,3.78
2019-04-14T00:26:11.489Z,3.72
2019-04-14T00:27:10.702Z,3.75
2019-04-14T00:28:11.645Z,3.75
2019-04-14T00:29:10.920Z,3.73
2019-04-14T00:30:10.459Z,3.73
2019-04-14T00:31:10.886Z,3.70
2019-04-14T00:32:11.611Z,3.70
2019-04-14T00:33:10.693Z,3.69
2019-04-14T00:34:11.337Z,3.69
2019-04-14T00:35:10.414Z,3.65
2019-04-14T00:36:10.835Z,3.62
2019-04-14T00:37:10.366Z,3.62
2019-04-14T00:38:10.611Z,3.60
2019-04-14T00:39:10.341Z,3.61
2019-04-14T00:40:10.527Z,3.75
2019-04-14T00:41:11.510Z,3.60
2019-04-14T00:42:10.316Z,3.55
2019-04-14T00:43:11.362Z,3.73
2019-04-14T00:44:10.287Z,3.60
2019-04-14T00:45:11.220Z,3.57
2019-04-14T00:46:10.286Z,3.57
2019-04-14T00:47:11.379Z,3.69
2019-04-14T00:48:14.241Z,3.66
2019-04-14T00:49:11.461Z,3.60
2019-04-14T00:50:10.238Z,3.57
2019-04-14T00:51:11.253Z,3.60
2019-04-14T00:52:10.241Z,3.60
2019-04-14T00:53:10.203Z,3.68
2019-04-14T00:54:11.003Z,3.65
2019-04-14T00:55:10.187Z,3.51
2019-04-14T00:56:10.488Z,3.54
2019-04-14T00:57:10.140Z,3.58
2019-04-14T00:58:10.413Z,3.54
2019-04-14T00:59:11.346Z,3.57
2019-04-14T01:00:10.432Z,3.54
2019-04-14T01:01:11.190Z,3.57
2019-04-14T01:02:10.084Z,3.57
2019-04-14T01:03:11.210Z,3.62
2019-04-14T01:04:10.064Z,3.52
2019-04-14T01:05:10.915Z,3.60
2019-04-14T01:06:10.057Z,3.51
2019-04-14T01:07:10.769Z,3.52
2019-04-14T01:08:10.017Z,3.47
2019-04-14T01:09:10.758Z,3.51
2019-04-14T01:10:10.405Z,3.51
2019-04-14T01:11:09.998Z,3.43
2019-04-14T01:12:10.296Z,3.43
2019-04-14T01:13:11.182Z,3.45
2019-04-14T01:14:10.178Z,3.47
2019-04-14T01:15:09.942Z,3.36
2019-04-14T01:16:15.341Z,3.47
2019-04-14T01:17:11.286Z,3.45
2019-04-14T01:18:10.071Z,3.39
2019-04-14T01:19:11.201Z,3.43
2019-04-14T01:20:10.149Z,3.39
2019-04-14T01:21:10.950Z,3.35
2019-04-14T01:22:09.888Z,3.39
2019-04-14T01:23:10.616Z,3.24
2019-04-14T01:24:09.835Z,3.24
2019-04-14T01:25:10.655Z,3.21
2019-04-14T01:26:09.819Z,3.26
2019-04-14T01:27:10.274Z,3.21
2019-04-14T01:28:09.806Z,3.24
2019-04-14T01:29:10.075Z,3.24
2019-04-14T01:30:11.053Z,3.28
2019-04-14T01:31:09.904Z,3.24
2019-04-14T01:32:09.746Z,3.24
2019-04-14T01:33:09.762Z,3.29
2019-04-14T01:34:10.746Z,3.26
2019-04-14T01:35:09.756Z,3.31
2019-04-14T01:36:10.503Z,3.28
2019-04-14T01:37:09.698Z,3.29
2019-04-14T01:38:10.330Z,3.32
2019-04-14T01:39:09.694Z,3.29
2019-04-14T01:40:09.972Z,3.20
2019-04-14T01:41:10.625Z,3.24
2019-04-14T01:42:09.634Z,3.24
2019-04-14T01:43:10.239Z,3.24
2019-04-14T01:44:09.610Z,3.24
2019-04-14T01:45:10.019Z,3.23
2019-04-14T01:46:17.757Z,3.24
2019-04-14T01:47:11.649Z,3.23
2019-04-14T01:48:10.528Z,3.20
2019-04-14T01:49:09.555Z,3.24
2019-04-14T01:50:10.524Z,3.17
2019-04-14T01:51:09.533Z,3.18
2019-04-14T01:52:10.301Z,3.17
2019-04-14T01:53:09.704Z,3.21
2019-04-14T01:54:10.604Z,3.17
2019-04-14T01:55:09.518Z,3.24
2019-04-14T01:56:10.217Z,3.15
2019-04-14T01:57:09.466Z,3.20
2019-04-14T01:58:09.992Z,3.15
2019-04-14T01:59:09.443Z,3.15
2019-04-14T02:00:09.848Z,3.15
2019-04-14T02:01:10.515Z,3.13
2019-04-14T02:02:09.717Z,3.13
2019-04-14T02:03:10.584Z,3.13
2019-04-14T02:04:09.541Z,3.03
2019-04-14T02:05:10.295Z,3.02
2019-04-14T02:06:09.385Z,3.13
2019-04-14T02:07:10.205Z,3.06
2019-04-14T02:08:09.341Z,3.08
2019-04-14T02:09:09.736Z,3.14
2019-04-14T02:10:09.320Z,3.11
2019-04-14T02:11:09.487Z,3.13
2019-04-14T02:12:10.500Z,3.17
2019-04-14T02:13:09.383Z,3.17
2019-04-14T02:14:10.412Z,3.17
2019-04-14T02:15:15.829Z,3.21
2019-04-14T02:16:18.472Z,3.11
2019-04-14T02:17:11.230Z,3.28
2019-04-14T02:18:09.953Z,3.24
2019-04-14T02:19:09.220Z,3.20
2019-04-14T02:20:10.037Z,3.17
2019-04-14T02:21:09.242Z,3.26
2019-04-14T02:22:09.573Z,3.18
2019-04-14T02:23:10.273Z,3.17
2019-04-14T02:24:09.281Z,3.15
2019-04-14T02:25:09.968Z,3.32
2019-04-14T02:26:09.256Z,3.29
2019-04-14T02:27:09.819Z,3.24
2019-04-14T02:28:09.209Z,3.24
2019-04-14T02:29:09.928Z,3.21
2019-04-14T02:30:12.903Z,3.21
2019-04-14T02:31:24.788Z,3.20
2019-04-14T02:32:45.237Z,3.17
2019-04-14T02:34:41.715Z,3.14
2019-04-14T02:35:37.205Z,3.14
2019-04-14T02:36:41.593Z,3.18
2019-04-14T02:37:40.325Z,3.21
2019-04-14T02:38:45.348Z,3.15
2019-04-14T02:39:42.050Z,3.18
2019-04-14T02:40:45.421Z,3.18
2019-04-14T02:41:35.874Z,3.29
2019-04-14T02:43:45.380Z,3.20
2019-04-14T02:44:41.017Z,3.14
2019-04-14T02:46:49.619Z,3.26
2019-04-14T02:47:53.803Z,3.17
2019-04-14T02:48:46.271Z,3.21
2019-04-14T02:49:34.982Z,3.17
2019-04-14T02:50:30.672Z,3.31
2019-04-14T02:51:33.681Z,3.29
2019-04-14T02:52:35.545Z,3.21
2019-04-14T02:54:48.048Z,3.26
2019-04-14T02:56:38.189Z,3.24
2019-04-14T02:58:48.366Z,3.18
2019-04-14T02:59:35.564Z,3.36
2019-04-14T03:01:48.320Z,3.36
2019-04-14T03:02:38.588Z,3.42
2019-04-14T03:03:49.291Z,3.35
2019-04-14T03:04:41.384Z,3.42
2019-04-14T03:05:42.340Z,3.32
2019-04-14T03:06:33.571Z,3.39
2019-04-14T03:07:37.907Z,3.45
2019-04-14T03:09:42.248Z,3.47
2019-04-14T03:10:40.181Z,3.52
2019-04-14T03:11:44.004Z,3.45
2019-04-14T03:13:35.935Z,3.54
2019-04-14T03:14:39.860Z,3.57
2019-04-14T03:16:44.334Z,3.54
2019-04-14T03:17:36.822Z,3.52
2019-04-14T03:19:44.234Z,3.60
2019-04-14T03:20:35.592Z,3.60
2019-04-14T03:21:34.368Z,3.62
2019-04-14T03:22:37.414Z,3.57
2019-04-14T03:23:46.814Z,3.66
2019-04-14T03:24:31.709Z,3.60
2019-04-14T03:25:27.705Z,3.70
2019-04-14T03:26:34.045Z,3.58
2019-04-14T03:27:43.792Z,3.62
2019-04-14T03:28:45.369Z,3.72
2019-04-14T03:29:52.071Z,3.70
2019-04-14T03:30:58.855Z,3.73
2019-04-14T03:34:43.445Z,3.70
2019-04-14T03:36:09.021Z,3.70
2019-04-14T03:37:18.441Z,3.75
2019-04-14T03:37:44.820Z,3.76
2019-04-14T03:38:36.904Z,3.69
2019-04-14T03:40:44.615Z,3.70
2019-04-14T03:44:37.207Z,3.68
2019-04-14T03:45:46.783Z,3.61
2019-04-14T03:46:41.535Z,3.69
2019-04-14T03:47:34.990Z,3.61
2019-04-14T03:48:55.540Z,3.69
2019-04-14T03:49:40.726Z,3.66
2019-04-14T03:50:36.795Z,3.69
2019-04-14T03:51:45.230Z,3.72
2019-04-14T03:52:43.705Z,3.61
2019-04-14T03:53:46.069Z,3.62
2019-04-14T03:54:27.254Z,3.62
2019-04-14T03:55:20.455Z,3.65
2019-04-14T03:56:11.361Z,3.75
2019-04-14T03:57:10.350Z,3.58
2019-04-14T03:58:08.943Z,3.68
2019-04-14T03:59:08.487Z,3.62
2019-04-14T04:00:08.082Z,3.69
2019-04-14T04:01:08.370Z,3.75
2019-04-14T04:02:08.091Z,3.65
2019-04-14T04:03:08.519Z,3.66
2019-04-14T04:04:08.037Z,3.68
2019-04-14T04:05:08.519Z,3.69
2019-04-14T04:06:08.014Z,3.68
2019-04-14T04:07:08.248Z,3.69
2019-04-14T04:08:09.265Z,3.66
2019-04-14T04:09:08.379Z,3.68
2019-04-14T04:10:09.248Z,3.62
2019-04-14T04:11:08.436Z,3.69
2019-04-14T04:12:07.947Z,3.58
2019-04-14T04:13:08.325Z,3.62
2019-04-14T04:14:07.925Z,3.62
2019-04-14T04:15:08.367Z,3.57
2019-04-14T04:16:07.954Z,3.57
2019-04-14T04:17:08.024Z,3.55
2019-04-14T04:18:09.070Z,3.68
2019-04-14T04:19:12.955Z,3.61
2019-04-14T04:20:09.061Z,3.62
2019-04-14T04:21:07.846Z,3.61
2019-04-14T04:22:08.552Z,3.62
2019-04-14T04:23:07.824Z,3.60
2019-04-14T04:24:08.593Z,3.60
2019-04-14T04:25:07.800Z,3.60
2019-04-14T04:26:08.242Z,3.57
2019-04-14T04:27:08.913Z,3.60
2019-04-14T04:28:08.068Z,3.58
2019-04-14T04:29:09.033Z,3.62
2019-04-14T04:30:08.062Z,3.57
2019-04-14T04:31:08.829Z,3.66
2019-04-14T04:32:07.887Z,3.60
2019-04-14T04:33:08.693Z,3.62
2019-04-14T04:34:07.717Z,3.66
2019-04-14T04:35:08.545Z,3.62
2019-04-14T04:36:07.676Z,3.69
2019-04-14T04:37:08.275Z,3.72
2019-04-14T04:38:07.653Z,3.66
2019-04-14T04:39:08.287Z,3.68
2019-04-14T04:40:07.668Z,3.68
2019-04-14T04:41:08.018Z,3.65
2019-04-14T04:42:07.609Z,3.68
2019-04-14T04:43:07.976Z,3.70
2019-04-14T04:44:07.588Z,3.62
2019-04-14T04:45:08.145Z,3.66
2019-04-14T04:46:07.579Z,3.76
2019-04-14T04:47:07.799Z,3.70
2019-04-14T04:48:08.790Z,3.70
2019-04-14T04:49:14.459Z,3.70
2019-04-14T04:50:08.623Z,3.75
2019-04-14T04:51:07.526Z,3.68
2019-04-14T04:52:10.896Z,3.70
2019-04-14T04:53:09.071Z,3.68
2019-04-14T04:54:08.176Z,3.69
2019-04-14T04:55:07.464Z,3.70
2019-04-14T04:56:08.010Z,3.68
2019-04-14T04:57:07.444Z,3.70
2019-04-14T04:58:07.772Z,3.70
2019-04-14T04:59:07.592Z,3.76
2019-04-14T05:00:07.407Z,3.72
2019-04-14T05:01:07.726Z,3.73
2019-04-14T05:02:07.386Z,3.69
2019-04-14T05:03:07.921Z,3.72
2019-04-14T05:04:07.372Z,3.73
2019-04-14T05:05:07.722Z,3.75
2019-04-14T05:06:07.339Z,3.78
2019-04-14T05:07:07.787Z,3.78
2019-04-14T05:08:07.319Z,3.73
2019-04-14T05:09:07.937Z,3.75
2019-04-14T05:10:07.305Z,3.75
2019-04-14T05:11:07.580Z,3.80
2019-04-14T05:12:07.301Z,3.83
2019-04-14T05:13:07.364Z,3.73
2019-04-14T05:14:07.250Z,3.75
2019-04-14T05:15:07.349Z,3.75
2019-04-14T05:16:08.424Z,3.88
2019-04-14T05:17:07.907Z,3.79
2019-04-14T05:18:07.222Z,3.72
2019-04-14T05:19:18.488Z,3.87
2019-04-14T05:20:09.434Z,3.87
2019-04-14T05:21:08.182Z,3.86
2019-04-14T05:22:07.162Z,3.90
2019-04-14T05:23:08.066Z,3.86
2019-04-14T05:24:07.155Z,3.88
2019-04-14T05:25:07.964Z,3.84
2019-04-14T05:26:07.188Z,3.91
2019-04-14T05:27:07.879Z,3.96
2019-04-14T05:28:07.108Z,3.94
2019-04-14T05:29:07.774Z,3.80
2019-04-14T05:30:07.070Z,3.86
2019-04-14T05:31:07.640Z,3.87
2019-04-14T05:32:07.050Z,3.78
2019-04-14T05:33:07.496Z,3.86
2019-04-14T05:34:07.041Z,3.90
2019-04-14T05:35:07.454Z,3.80
2019-04-14T05:36:07.004Z,3.83
2019-04-14T05:37:07.227Z,3.93
2019-04-14T05:38:08.323Z,3.86
2019-04-14T05:39:06.989Z,3.96
2019-04-14T05:40:08.080Z,3.98
2019-04-14T05:41:07.077Z,3.96
2019-04-14T05:42:13.233Z,3.96
2019-04-14T05:43:08.882Z,3.91
2019-04-14T05:44:07.925Z,3.97
2019-04-14T05:45:06.903Z,3.96
2019-04-14T05:46:07.738Z,3.96
2019-04-14T05:47:06.885Z,3.93
2019-04-14T05:48:07.456Z,3.87
2019-04-14T05:49:06.859Z,3.87
2019-04-14T05:50:07.338Z,3.84
2019-04-14T05:51:06.839Z,3.93
2019-04-14T05:52:07.751Z,3.96
2019-04-14T05:53:06.830Z,3.93
2019-04-14T05:54:07.835Z,3.88
2019-04-14T05:55:06.826Z,3.93
2019-04-14T05:56:07.883Z,3.88
2019-04-14T05:57:06.768Z,3.98
2019-04-14T05:58:07.825Z,3.96
2019-04-14T05:59:06.795Z,3.96
2019-04-14T06:00:07.863Z,4.02
2019-04-14T06:01:06.982Z,4.02
2019-04-14T06:02:07.274Z,3.98
2019-04-14T06:03:06.700Z,4.00
2019-04-14T06:04:07.113Z,4.05
2019-04-14T06:05:08.850Z,4.04
2019-04-14T06:06:06.685Z,4.06
2019-04-14T06:07:06.660Z,4.04
2019-04-14T06:08:06.646Z,4.09
2019-04-14T06:09:06.634Z,4.08
2019-04-14T06:10:06.623Z,4.05
2019-04-14T06:11:06.641Z,4.04
2019-04-14T06:12:06.603Z,4.18
2019-04-14T06:13:06.588Z,4.20
2019-04-14T06:14:06.579Z,4.15
2019-04-14T06:15:06.568Z,4.16
2019-04-14T06:16:06.555Z,4.18
2019-04-14T06:17:06.561Z,4.16
2019-04-14T06:18:06.532Z,4.16
2019-04-14T06:19:06.521Z,4.22
2019-04-14T06:20:06.511Z,4.18
2019-04-14T06:21:06.498Z,4.20
2019-04-14T06:22:06.503Z,4.22
2019-04-14T06:23:06.477Z,4.24
2019-04-14T06:24:06.464Z,4.16
2019-04-14T06:25:06.453Z,4.16
2019-04-14T06:26:06.443Z,4.22
2019-04-14T06:27:07.356Z,4.32
2019-04-14T06:28:07.418Z,4.30
2019-04-14T06:29:06.409Z,4.24
2019-04-14T06:30:06.398Z,4.33
2019-04-14T06:31:08.889Z,4.29
2019-04-14T06:32:06.382Z,4.29
2019-04-14T06:33:06.384Z,4.18
2019-04-14T06:34:06.351Z,4.22
2019-04-14T06:35:06.339Z,4.23
2019-04-14T06:36:06.866Z,4.22
2019-04-14T06:37:06.321Z,4.20
2019-04-14T06:38:06.335Z,4.23
2019-04-14T06:39:06.295Z,4.18
2019-04-14T06:40:06.285Z,4.27
2019-04-14T06:41:06.273Z,4.30
2019-04-14T06:42:06.261Z,4.32
2019-04-14T06:43:06.249Z,4.44
2019-04-14T06:44:06.253Z,4.36
2019-04-14T06:45:06.226Z,4.33
2019-04-14T06:46:06.224Z,4.40
2019-04-14T06:47:06.207Z,4.44
2019-04-14T06:48:06.192Z,4.34
2019-04-14T06:49:06.200Z,4.32
2019-04-14T06:50:06.172Z,4.42
2019-04-14T06:51:06.164Z,4.34
2019-04-14T06:52:06.147Z,4.37
2019-04-14T06:53:06.136Z,4.44
2019-04-14T06:54:06.190Z,4.32
2019-04-14T06:55:06.115Z,4.40
2019-04-14T06:56:06.104Z,4.41
2019-04-14T06:57:06.091Z,4.33
2019-04-14T06:58:06.081Z,4.37
2019-04-14T06:59:06.071Z,4.33
2019-04-14T07:00:06.126Z,4.34
2019-04-14T07:01:06.049Z,4.34
2019-04-14T07:02:08.573Z,4.40
2019-04-14T07:03:06.034Z,4.42
2019-04-14T07:04:06.015Z,4.41
2019-04-14T07:05:06.032Z,4.47
2019-04-14T07:06:05.991Z,4.44
2019-04-14T07:07:05.978Z,4.48
2019-04-14T07:08:05.972Z,4.47
2019-04-14T07:09:05.954Z,4.45
2019-04-14T07:10:05.945Z,4.42
2019-04-14T07:11:05.949Z,4.47
2019-04-14T07:12:06.030Z,4.59
2019-04-14T07:13:05.910Z,4.55
2019-04-14T07:14:05.904Z,4.60
2019-04-14T07:15:05.887Z,4.62
2019-04-14T07:16:05.903Z,4.60
2019-04-14T07:17:05.865Z,4.58
2019-04-14T07:18:05.855Z,4.66
2019-04-14T07:19:05.841Z,4.60
2019-04-14T07:20:05.833Z,4.58
2019-04-14T07:21:05.819Z,4.51
2019-04-14T07:22:05.826Z,4.63
2019-04-14T07:23:05.798Z,4.62
2019-04-14T07:24:05.790Z,4.59
2019-04-14T07:25:05.824Z,4.60
2019-04-14T07:26:05.764Z,4.67
2019-04-14T07:27:05.767Z,4.65
2019-04-14T07:28:05.743Z,4.66
2019-04-14T07:29:05.733Z,4.69
2019-04-14T07:30:05.718Z,4.69
2019-04-14T07:31:05.707Z,4.65
2019-04-14T07:32:05.727Z,4.73
2019-04-14T07:33:05.685Z,4.73
2019-04-14T07:34:05.672Z,4.73
2019-04-14T07:35:05.660Z,4.70
2019-04-14T07:36:05.653Z,4.75
2019-04-14T07:37:05.648Z,4.70
2019-04-14T07:38:05.646Z,4.73
2019-04-14T07:39:05.676Z,4.70
2019-04-14T07:40:05.609Z,4.69
2019-04-14T07:41:05.595Z,4.72
2019-04-14T07:42:05.587Z,4.69
2019-04-14T07:43:05.598Z,4.73
2019-04-14T07:44:05.562Z,4.69
2019-04-14T07:45:05.552Z,4.67
2019-04-14T07:46:05.541Z,4.69
2019-04-14T07:47:05.525Z,4.67
2019-04-14T07:48:05.519Z,4.66
2019-04-14T07:49:05.525Z,4.63
2019-04-14T07:50:14.586Z,4.58
2019-04-14T07:51:06.481Z,4.55
2019-04-14T07:52:05.674Z,4.60
2019-04-14T07:53:05.569Z,4.50
2019-04-14T07:54:05.576Z,4.47
2019-04-14T07:55:05.447Z,4.44
2019-04-14T07:56:05.587Z,4.50
2019-04-14T07:57:05.428Z,4.44
2019-04-14T07:59:14.798Z,4.42
2019-04-14T08:00:14.786Z,4.59
2019-04-14T08:01:14.732Z,4.47
2019-04-14T08:02:14.726Z,4.48
2019-04-14T08:03:14.710Z,4.47
2019-04-14T08:04:14.692Z,4.50
2019-04-14T08:05:14.701Z,4.52
2019-04-14T08:06:14.672Z,4.42
2019-04-14T08:07:14.658Z,4.44
2019-04-14T08:08:14.651Z,4.47
2019-04-14T08:09:14.642Z,4.48
2019-04-14T08:10:14.645Z,4.50
2019-04-14T08:11:14.615Z,4.44
2019-04-14T08:12:14.604Z,4.34
2019-04-14T08:13:14.596Z,4.37
2019-04-14T08:14:14.580Z,4.41
2019-04-14T08:15:14.596Z,4.48
2019-04-14T08:16:14.559Z,4.45
2019-04-14T08:17:14.546Z,4.36
2019-04-14T08:18:14.535Z,4.36
2019-04-14T08:19:14.528Z,4.41
2019-04-14T08:20:26.451Z,4.33
2019-04-14T08:21:15.519Z,4.37
2019-04-14T08:22:14.492Z,4.33
2019-04-14T08:23:14.478Z,4.42
2019-04-14T08:24:14.479Z,4.27
2019-04-14T08:25:14.456Z,4.27
2019-04-14T08:26:14.461Z,4.12
2019-04-14T08:27:14.434Z,4.18
2019-04-14T08:28:14.428Z,4.27
2019-04-14T08:29:14.410Z,4.23
2019-04-14T08:30:14.400Z,4.29
2019-04-14T08:31:14.420Z,4.27
2019-04-14T08:32:14.384Z,4.22
2019-04-14T08:33:14.367Z,4.14
2019-04-14T08:34:14.354Z,4.30
2019-04-14T08:35:14.343Z,4.30
2019-04-14T08:36:14.336Z,4.26
2019-04-14T08:37:14.337Z,4.30
2019-04-14T08:38:14.319Z,4.33
2019-04-14T08:39:14.300Z,4.36
2019-04-14T08:40:14.288Z,4.29
2019-04-14T08:41:14.282Z,4.33
2019-04-14T08:42:14.289Z,4.36
2019-04-14T08:43:14.261Z,4.42
2019-04-14T08:44:14.245Z,4.40
2019-04-14T08:45:14.234Z,4.47
2019-04-14T08:46:14.223Z,4.48
2019-04-14T08:47:14.227Z,4.48
2019-04-14T08:48:14.199Z,4.48
2019-04-14T08:49:14.187Z,4.47
2019-04-14T08:50:14.177Z,4.47
2019-04-14T08:51:14.184Z,4.37
2019-04-14T08:52:14.182Z,4.40
2019-04-14T08:53:14.144Z,4.41
2019-04-14T08:54:14.133Z,4.34
2019-04-14T08:55:14.125Z,4.33
2019-04-14T08:56:14.110Z,4.45
2019-04-14T08:57:14.115Z,4.50
2019-04-14T08:58:14.107Z,4.45
2019-04-14T08:59:14.075Z,4.50
2019-04-14T09:00:14.066Z,4.40
2019-04-14T09:01:14.053Z,4.36
2019-04-14T09:02:14.043Z,4.37
2019-04-14T09:03:14.050Z,4.34
2019-04-14T09:04:14.023Z,4.37
2019-04-14T09:05:14.013Z,4.32
2019-04-14T09:06:14.009Z,4.41
2019-04-14T09:07:13.992Z,4.33
2019-04-14T09:08:14.014Z,4.36
2019-04-14T09:09:13.965Z,4.40
2019-04-14T09:10:13.957Z,4.41
2019-04-14T09:11:13.942Z,4.33
2019-04-14T09:12:15.761Z,4.37
2019-04-14T09:13:13.935Z,4.30
2019-04-14T09:14:13.906Z,4.37
2019-04-14T09:15:13.897Z,4.45
2019-04-14T09:16:13.886Z,4.48
2019-04-14T09:17:13.873Z,4.48
2019-04-14T09:18:13.891Z,4.58
2019-04-14T09:19:13.852Z,4.59
2019-04-14T09:20:13.840Z,4.62
2019-04-14T09:21:13.832Z,4.66
2019-04-14T09:22:13.816Z,4.63
2019-04-14T09:23:13.807Z,4.66
2019-04-14T09:24:13.811Z,4.65
2019-04-14T09:25:13.784Z,4.66
2019-04-14T09:26:13.773Z,4.63
2019-04-14T09:27:13.763Z,4.65
2019-04-14T09:28:13.749Z,4.66
2019-04-14T09:29:13.754Z,4.63
2019-04-14T09:30:13.736Z,4.58
2019-04-14T09:31:13.716Z,4.63
2019-04-14T09:32:13.708Z,4.55
2019-04-14T09:33:13.696Z,4.48
2019-04-14T09:34:13.713Z,4.44
2019-04-14T09:35:13.672Z,4.54
2019-04-14T09:36:13.660Z,4.44
2019-04-14T09:37:13.651Z,4.44
2019-04-14T09:38:13.639Z,4.62
2019-04-14T09:39:13.626Z,4.51
2019-04-14T09:40:13.635Z,4.47
2019-04-14T09:41:13.613Z,4.42
2019-04-14T09:42:13.592Z,4.33
2019-04-14T09:43:13.581Z,4.34
2019-04-14T09:44:13.571Z,4.48
2019-04-14T09:45:13.585Z,4.47
2019-04-14T09:46:13.547Z,4.45
2019-04-14T09:47:13.540Z,4.54
2019-04-14T09:48:13.525Z,4.58
2019-04-14T09:49:13.512Z,4.60
2019-04-14T09:50:13.503Z,4.66
2019-04-14T09:51:13.510Z,4.65
2019-04-14T09:52:13.486Z,4.55
2019-04-14T09:53:13.471Z,4.51
2019-04-14T09:54:13.458Z,4.69
2019-04-14T09:55:13.446Z,4.65
2019-04-14T09:56:13.464Z,4.66
2019-04-14T09:57:13.425Z,4.59
2019-04-14T09:58:13.416Z,4.65
2019-04-14T09:59:13.403Z,4.52
2019-04-14T10:00:13.393Z,4.48
2019-04-14T10:01:13.378Z,4.58
2019-04-14T10:02:13.384Z,4.60
2019-04-14T10:03:13.358Z,4.55
2019-04-14T10:04:13.346Z,4.58
2019-04-14T10:05:13.333Z,4.60
2019-04-14T10:06:13.327Z,4.55
2019-04-14T10:07:13.342Z,4.47
2019-04-14T10:08:13.299Z,4.47
2019-04-14T10:09:13.288Z,4.47
2019-04-14T10:10:13.280Z,4.47
2019-04-14T10:11:13.265Z,4.47
2019-04-14T10:12:13.255Z,4.59
2019-04-14T10:13:13.259Z,4.52
2019-04-14T10:14:13.230Z,4.59
2019-04-14T10:15:13.226Z,4.60
2019-04-14T10:16:13.209Z,4.65
2019-04-14T10:17:13.200Z,4.69
2019-04-14T10:18:13.203Z,4.65
2019-04-14T10:19:13.175Z,4.77
2019-04-14T10:20:13.169Z,4.72
2019-04-14T10:21:17.642Z,4.69
2019-04-14T10:22:13.139Z,4.72
2019-04-14T10:23:13.157Z,4.69
2019-04-14T10:24:13.117Z,4.73
2019-04-14T10:25:13.107Z,4.69
2019-04-14T10:26:13.097Z,4.69
2019-04-14T10:27:13.088Z,4.72
2019-04-14T10:28:13.074Z,4.65
2019-04-14T10:29:13.079Z,4.67
2019-04-14T10:30:13.052Z,4.72
2019-04-14T10:31:13.043Z,4.69
2019-04-14T10:32:13.033Z,4.65
2019-04-14T10:33:13.028Z,4.67
2019-04-14T10:34:13.048Z,4.70
2019-04-14T10:35:12.999Z,4.73
2019-04-14T10:36:12.991Z,4.67
2019-04-14T10:37:12.973Z,4.70
2019-04-14T10:38:12.962Z,4.62
2019-04-14T10:39:12.982Z,4.66
2019-04-14T10:40:12.939Z,4.72
2019-04-14T10:41:12.930Z,4.72
2019-04-14T10:42:12.915Z,4.65
2019-04-14T10:43:12.906Z,4.63
2019-04-14T10:44:12.943Z,4.66
2019-04-14T10:45:12.944Z,4.66
2019-04-14T10:46:12.873Z,4.72
2019-04-14T10:47:12.861Z,4.66
2019-04-14T10:48:12.851Z,4.62
2019-04-14T10:49:12.880Z,4.65
2019-04-14T10:50:12.845Z,4.66
2019-04-14T10:51:12.818Z,4.75
2019-04-14T10:52:12.805Z,4.73
2019-04-14T10:53:12.795Z,4.75
2019-04-14T10:54:12.793Z,4.72
2019-04-14T10:55:12.799Z,4.72
2019-04-14T10:56:12.760Z,4.67
2019-04-14T10:57:12.751Z,4.69
2019-04-14T10:58:12.743Z,4.73
2019-04-14T10:59:12.861Z,4.75
2019-04-14T11:00:13.742Z,4.73
2019-04-14T11:01:12.711Z,4.85
2019-04-14T11:02:12.690Z,4.77
2019-04-14T11:03:12.682Z,4.82
2019-04-14T11:04:12.669Z,4.85
2019-04-14T11:05:12.661Z,4.86
2019-04-14T11:06:13.000Z,4.78
2019-04-14T11:07:12.635Z,4.85
2019-04-14T11:08:12.622Z,4.77
2019-04-14T11:09:12.614Z,4.84
2019-04-14T11:10:12.602Z,4.75
2019-04-14T11:11:12.613Z,4.84
2019-04-14T11:12:12.580Z,4.72
2019-04-14T11:13:12.595Z,4.70
2019-04-14T11:14:12.556Z,4.66
2019-04-14T11:15:15.350Z,4.69
2019-04-14T11:16:12.563Z,4.67
2019-04-14T11:17:12.522Z,4.69
2019-04-14T11:18:12.509Z,4.69
2019-04-14T11:19:12.500Z,4.65
2019-04-14T11:20:12.489Z,4.65
2019-04-14T11:21:12.477Z,4.62
2019-04-14T11:22:12.481Z,4.72
2019-04-14T11:23:12.454Z,4.65
2019-04-14T11:24:12.441Z,4.69
2019-04-14T11:25:12.436Z,4.65
2019-04-14T11:26:12.418Z,4.70
2019-04-14T11:27:12.424Z,4.75
2019-04-14T11:28:12.398Z,4.67
2019-04-14T11:29:12.384Z,4.67
2019-04-14T11:30:12.371Z,4.60
2019-04-14T11:31:12.361Z,4.58
2019-04-14T11:32:12.383Z,4.63
2019-04-14T11:33:12.338Z,4.51
2019-04-14T11:34:12.331Z,4.62
2019-04-14T11:35:12.321Z,4.67
2019-04-14T11:36:12.305Z,4.67
2019-04-14T11:37:12.293Z,4.72
2019-04-14T11:38:12.303Z,4.66
2019-04-14T11:39:12.275Z,4.69
2019-04-14T11:40:12.259Z,4.69
2019-04-14T11:41:12.258Z,4.73
2019-04-14T11:42:12.240Z,4.67
2019-04-14T11:43:12.245Z,4.70
2019-04-14T11:44:12.234Z,4.73
2019-04-14T11:45:12.212Z,4.65
2019-04-14T11:46:12.209Z,4.70
2019-04-14T11:47:12.201Z,4.67
2019-04-14T11:48:12.197Z,4.70
2019-04-14T11:49:12.166Z,4.69
2019-04-14T11:50:12.148Z,4.70
2019-04-14T11:51:12.141Z,4.70
2019-04-14T11:52:12.125Z,4.73
2019-04-14T11:53:12.115Z,4.75
2019-04-14T11:54:12.134Z,4.72
2019-04-14T11:55:12.098Z,4.72
2019-04-14T11:56:12.081Z,4.65
2019-04-14T11:57:12.068Z,4.69
2019-04-14T11:58:12.059Z,4.62
2019-04-14T11:59:12.074Z,4.63
2019-04-14T12:00:12.035Z,4.62
2019-04-14T12:01:12.025Z,4.62
2019-04-14T12:02:12.020Z,4.60
2019-04-14T12:03:12.005Z,4.59
2019-04-14T12:04:11.990Z,4.59
2019-04-14T12:05:11.998Z,4.69
2019-04-14T12:06:11.970Z,4.60
2019-04-14T12:07:11.968Z,4.60
2019-04-14T12:08:11.952Z,4.59
2019-04-14T12:09:11.931Z,4.62
2019-04-14T12:10:11.943Z,4.58
2019-04-14T12:11:11.916Z,4.54
2019-04-14T12:12:11.900Z,4.52
2019-04-14T12:13:11.890Z,4.51
2019-04-14T12:14:11.884Z,4.50
2019-04-14T12:15:16.052Z,4.60
2019-04-14T12:16:11.855Z,4.54
2019-04-14T12:17:11.846Z,4.51
2019-04-14T12:18:11.833Z,4.58
2019-04-14T12:19:11.821Z,4.62
2019-04-14T12:20:11.826Z,4.66
2019-04-14T12:21:11.799Z,4.65
2019-04-14T12:22:11.788Z,4.60
2019-04-14T12:23:11.777Z,4.58
2019-04-14T12:24:11.765Z,4.59
2019-04-14T12:25:11.784Z,4.60
2019-04-14T12:26:11.743Z,4.59
2019-04-14T12:27:11.733Z,4.58
2019-04-14T12:28:11.721Z,4.70
2019-04-14T12:29:11.850Z,4.67
2019-04-14T12:30:11.704Z,4.60
2019-04-14T12:31:13.000Z,4.65
2019-04-14T12:32:12.774Z,4.66
2019-04-14T12:33:11.706Z,4.66
2019-04-14T12:34:11.656Z,4.70
2019-04-14T12:35:11.645Z,4.65
2019-04-14T12:36:11.660Z,4.69
2019-04-14T12:37:11.620Z,4.65
2019-04-14T12:38:11.609Z,4.65
2019-04-14T12:39:11.597Z,4.63
2019-04-14T12:40:11.586Z,4.73
2019-04-14T12:41:12.590Z,4.73
2019-04-14T12:42:11.579Z,4.73
2019-04-14T12:43:11.565Z,4.80
2019-04-14T12:44:11.543Z,4.85
2019-04-14T12:45:11.528Z,4.77
2019-04-14T12:46:11.517Z,4.78
2019-04-14T12:47:11.538Z,4.89
2019-04-14T12:48:11.501Z,4.86
2019-04-14T12:49:11.485Z,4.82
2019-04-14T12:50:11.473Z,4.89
2019-04-14T12:51:11.476Z,4.88
2019-04-14T12:52:21.129Z,4.89
2019-04-14T12:53:12.470Z,4.77
2019-04-14T12:54:13.909Z,4.85
2019-04-14T12:55:11.420Z,4.82
2019-04-14T12:56:11.405Z,4.84
2019-04-14T12:57:11.404Z,4.82
2019-04-14T12:58:11.478Z,4.82
2019-04-14T12:59:11.386Z,4.91
2019-04-14T13:00:11.371Z,4.89
2019-04-14T13:01:11.351Z,4.88
2019-04-14T13:02:11.446Z,4.89
2019-04-14T13:03:11.330Z,4.85
2019-04-14T13:04:11.329Z,4.91
2019-04-14T13:05:11.318Z,4.96
2019-04-14T13:06:11.293Z,5.02
2019-04-14T13:07:11.281Z,5.02
2019-04-14T13:08:11.268Z,4.94
2019-04-14T13:09:11.277Z,4.99
2019-04-14T13:10:11.249Z,4.97
2019-04-14T13:11:11.234Z,4.99
2019-04-14T13:12:11.224Z,5.02
2019-04-14T13:13:11.213Z,5.00
2019-04-14T13:14:11.228Z,5.06
2019-04-14T13:15:11.188Z,5.13
2019-04-14T13:16:11.180Z,5.09
2019-04-14T13:17:11.177Z,5.09
2019-04-14T13:18:11.159Z,5.12
2019-04-14T13:19:11.144Z,5.06
2019-04-14T13:20:11.165Z,5.13
2019-04-14T13:21:11.122Z,5.17
2019-04-14T13:22:11.107Z,5.20
2019-04-14T13:23:11.099Z,5.21
2019-04-14T13:24:11.087Z,5.17
2019-04-14T13:25:11.091Z,5.20
2019-04-14T13:26:11.075Z,5.24
2019-04-14T13:27:11.059Z,5.20
2019-04-14T13:28:11.045Z,5.18
2019-04-14T13:29:11.039Z,5.24
2019-04-14T13:30:11.058Z,5.21
2019-04-14T13:31:11.012Z,5.25
2019-04-14T13:32:10.997Z,5.28
2019-04-14T13:33:10.985Z,5.20
2019-04-14T13:34:10.973Z,5.27
2019-04-14T13:35:10.964Z,5.20
2019-04-14T13:36:10.985Z,5.22
2019-04-14T13:37:10.941Z,5.25